sensor_id;sensor_type;location;lat;lon;timestamp;temperature;humidity
12477;DHT22;6303;51.504;6.300;2022-12-07T00:01:12;21.80;51.20
12477;DHT22;6303;51.504;6.300;2022-12-07T00:03:40;23.60;52.20
12477;DHT22;6303;51.504;6.300;2022-12-07T00:06:09;21.80;51.30
12477;DHT22;6303;51.504;6.300;2022-12-07T00:08:37;21.80;51.30
12477;DHT22;6303;51.504;6.300;2022-12-07T00:11:05;21.80;51.30
12477;DHT22;6303;51.504;6.300;2022-12-07T00:13:34;21.80;51.30
12477;DHT22;6303;51.504;6.300;2022-12-07T00:16:04;21.80;51.30
12477;DHT22;6303;51.504;6.300;2022-12-07T00:18:31;21.80;51.40
12477;DHT22;6303;51.504;6.300;2022-12-07T00:21:02;21.80;51.40
12477;DHT22;6303;51.504;6.300;2022-12-07T00:23:30;21.70;51.40
12477;DHT22;6303;51.504;6.300;2022-12-07T00:26:03;21.80;51.40
12477;DHT22;6303;51.504;6.300;2022-12-07T00:28:30;21.80;51.40
12477;DHT22;6303;51.504;6.300;2022-12-07T00:31:06;21.80;51.40
12477;DHT22;6303;51.504;6.300;2022-12-07T00:33:33;21.80;51.40
12477;DHT22;6303;51.504;6.300;2022-12-07T00:36:01;21.80;51.40
12477;DHT22;6303;51.504;6.300;2022-12-07T00:38:29;21.70;51.30
12477;DHT22;6303;51.504;6.300;2022-12-07T00:40:57;21.70;51.40
12477;DHT22;6303;51.504;6.300;2022-12-07T00:43:25;21.70;51.40
12477;DHT22;6303;51.504;6.300;2022-12-07T00:45:52;21.70;51.40
12477;DHT22;6303;51.504;6.300;2022-12-07T00:48:21;21.70;51.40
12477;DHT22;6303;51.504;6.300;2022-12-07T00:50:48;21.70;51.40
12477;DHT22;6303;51.504;6.300;2022-12-07T00:53:16;21.70;51.40
12477;DHT22;6303;51.504;6.300;2022-12-07T00:55:44;21.70;51.40
12477;DHT22;6303;51.504;6.300;2022-12-07T00:58:11;21.70;51.40
12477;DHT22;6303;51.504;6.300;2022-12-07T01:00:39;21.70;51.50
12477;DHT22;6303;51.504;6.300;2022-12-07T01:03:09;21.70;51.50
12477;DHT22;6303;51.504;6.300;2022-12-07T01:05:38;21.60;51.50
12477;DHT22;6303;51.504;6.300;2022-12-07T01:08:06;21.70;52.10
12477;DHT22;6303;51.504;6.300;2022-12-07T01:10:33;21.60;51.40
12477;DHT22;6303;51.504;6.300;2022-12-07T01:13:01;21.70;51.50
12477;DHT22;6303;51.504;6.300;2022-12-07T01:15:28;21.60;51.50
12477;DHT22;6303;51.504;6.300;2022-12-07T01:17:55;21.60;51.40
12477;DHT22;6303;51.504;6.300;2022-12-07T01:20:22;21.60;51.50
12477;DHT22;6303;51.504;6.300;2022-12-07T01:22:50;21.60;51.50
12477;DHT22;6303;51.504;6.300;2022-12-07T01:25:17;22.80;52.10
12477;DHT22;6303;51.504;6.300;2022-12-07T01:27:44;21.60;51.50
12477;DHT22;6303;51.504;6.300;2022-12-07T01:30:12;21.60;51.50
12477;DHT22;6303;51.504;6.300;2022-12-07T01:32:40;21.60;51.50
12477;DHT22;6303;51.504;6.300;2022-12-07T01:35:07;21.60;51.50
12477;DHT22;6303;51.504;6.300;2022-12-07T01:37:35;21.60;51.60
12477;DHT22;6303;51.504;6.300;2022-12-07T01:40:06;21.50;51.60
12477;DHT22;6303;51.504;6.300;2022-12-07T01:42:33;21.50;51.70
12477;DHT22;6303;51.504;6.300;2022-12-07T01:45:37;21.50;51.70
12477;DHT22;6303;51.504;6.300;2022-12-07T01:48:05;21.50;51.70
12477;DHT22;6303;51.504;6.300;2022-12-07T01:50:33;21.50;51.60
12477;DHT22;6303;51.504;6.300;2022-12-07T01:53:04;21.50;51.60
12477;DHT22;6303;51.504;6.300;2022-12-07T01:55:34;21.60;51.70
12477;DHT22;6303;51.504;6.300;2022-12-07T01:58:04;21.50;51.60
12477;DHT22;6303;51.504;6.300;2022-12-07T02:00:31;21.50;51.60
12477;DHT22;6303;51.504;6.300;2022-12-07T02:03:04;21.50;52.30
12477;DHT22;6303;51.504;6.300;2022-12-07T02:05:33;21.50;51.70
12477;DHT22;6303;51.504;6.300;2022-12-07T02:08:00;21.50;51.60
12477;DHT22;6303;51.504;6.300;2022-12-07T02:10:29;21.50;51.70
12477;DHT22;6303;51.504;6.300;2022-12-07T02:13:01;21.50;51.70
12477;DHT22;6303;51.504;6.300;2022-12-07T02:15:38;21.50;51.70
12477;DHT22;6303;51.504;6.300;2022-12-07T02:18:11;21.50;51.70
12477;DHT22;6303;51.504;6.300;2022-12-07T02:20:46;21.50;51.70
12477;DHT22;6303;51.504;6.300;2022-12-07T02:23:39;21.50;51.70
12477;DHT22;6303;51.504;6.300;2022-12-07T02:26:24;21.50;51.70
12477;DHT22;6303;51.504;6.300;2022-12-07T02:29:10;21.50;51.80
12477;DHT22;6303;51.504;6.300;2022-12-07T02:31:43;21.40;51.70
12477;DHT22;6303;51.504;6.300;2022-12-07T02:34:18;21.50;51.80
12477;DHT22;6303;51.504;6.300;2022-12-07T02:36:50;21.50;51.80
12477;DHT22;6303;51.504;6.300;2022-12-07T02:39:25;21.40;51.70
12477;DHT22;6303;51.504;6.300;2022-12-07T02:41:57;21.40;51.80
12477;DHT22;6303;51.504;6.300;2022-12-07T02:44:30;21.40;51.80
12477;DHT22;6303;51.504;6.300;2022-12-07T02:47:00;21.40;51.80
12477;DHT22;6303;51.504;6.300;2022-12-07T02:49:29;21.40;51.80
12477;DHT22;6303;51.504;6.300;2022-12-07T02:51:57;21.40;51.80
12477;DHT22;6303;51.504;6.300;2022-12-07T02:54:24;21.40;51.80
12477;DHT22;6303;51.504;6.300;2022-12-07T02:56:53;21.40;51.80
12477;DHT22;6303;51.504;6.300;2022-12-07T02:59:32;21.40;51.80
12477;DHT22;6303;51.504;6.300;2022-12-07T03:02:10;21.40;51.80
12477;DHT22;6303;51.504;6.300;2022-12-07T03:04:48;21.40;51.90
12477;DHT22;6303;51.504;6.300;2022-12-07T03:07:26;21.40;52.40
12477;DHT22;6303;51.504;6.300;2022-12-07T03:10:01;21.40;51.80
12477;DHT22;6303;51.504;6.300;2022-12-07T03:12:32;21.40;51.40
12477;DHT22;6303;51.504;6.300;2022-12-07T03:15:07;21.30;51.80
12477;DHT22;6303;51.504;6.300;2022-12-07T03:17:38;21.30;52.10
12477;DHT22;6303;51.504;6.300;2022-12-07T03:20:10;21.40;51.90
12477;DHT22;6303;51.504;6.300;2022-12-07T03:22:40;21.30;51.80
12477;DHT22;6303;51.504;6.300;2022-12-07T03:25:11;21.30;51.80
12477;DHT22;6303;51.504;6.300;2022-12-07T03:27:44;21.30;52.50
12477;DHT22;6303;51.504;6.300;2022-12-07T03:30:16;21.30;51.90
12477;DHT22;6303;51.504;6.300;2022-12-07T03:32:47;21.30;51.90
12477;DHT22;6303;51.504;6.300;2022-12-07T03:35:19;21.30;51.90
12477;DHT22;6303;51.504;6.300;2022-12-07T03:37:51;21.30;51.90
12477;DHT22;6303;51.504;6.300;2022-12-07T03:40:25;21.30;52.00
12477;DHT22;6303;51.504;6.300;2022-12-07T03:42:54;21.20;52.00
12477;DHT22;6303;51.504;6.300;2022-12-07T03:45:32;21.30;52.00
12477;DHT22;6303;51.504;6.300;2022-12-07T03:48:08;21.30;51.90
12477;DHT22;6303;51.504;6.300;2022-12-07T03:50:40;21.30;51.90
12477;DHT22;6303;51.504;6.300;2022-12-07T03:53:14;21.30;51.90
12477;DHT22;6303;51.504;6.300;2022-12-07T03:55:44;21.20;51.90
12477;DHT22;6303;51.504;6.300;2022-12-07T03:58:16;21.20;51.90
12477;DHT22;6303;51.504;6.300;2022-12-07T04:00:46;18.90;50.80
12477;DHT22;6303;51.504;6.300;2022-12-07T04:03:13;21.30;52.00
12477;DHT22;6303;51.504;6.300;2022-12-07T04:05:40;21.20;52.00
12477;DHT22;6303;51.504;6.300;2022-12-07T04:08:08;21.20;51.90
12477;DHT22;6303;51.504;6.300;2022-12-07T04:10:35;21.20;51.90
12477;DHT22;6303;51.504;6.300;2022-12-07T04:13:02;21.20;51.90
12477;DHT22;6303;51.504;6.300;2022-12-07T04:15:29;21.20;51.90
12477;DHT22;6303;51.504;6.300;2022-12-07T04:17:58;18.90;50.80
12477;DHT22;6303;51.504;6.300;2022-12-07T04:20:25;21.20;51.90
12477;DHT22;6303;51.504;6.300;2022-12-07T04:22:52;21.20;51.90
12477;DHT22;6303;51.504;6.300;2022-12-07T04:25:19;21.20;52.00
12477;DHT22;6303;51.504;6.300;2022-12-07T04:27:46;21.20;52.00
12477;DHT22;6303;51.504;6.300;2022-12-07T04:30:13;21.20;51.90
12477;DHT22;6303;51.504;6.300;2022-12-07T04:32:40;21.20;51.90
12477;DHT22;6303;51.504;6.300;2022-12-07T04:35:09;21.20;52.50
12477;DHT22;6303;51.504;6.300;2022-12-07T04:37:36;21.20;51.90
12477;DHT22;6303;51.504;6.300;2022-12-07T04:40:06;21.20;51.90
12477;DHT22;6303;51.504;6.300;2022-12-07T04:42:34;21.20;51.80
12477;DHT22;6303;51.504;6.300;2022-12-07T04:45:01;21.20;51.90
12477;DHT22;6303;51.504;6.300;2022-12-07T04:47:28;21.20;51.90
12477;DHT22;6303;51.504;6.300;2022-12-07T04:49:55;21.20;51.90
12477;DHT22;6303;51.504;6.300;2022-12-07T04:52:24;21.20;51.90
12477;DHT22;6303;51.504;6.300;2022-12-07T04:54:51;21.20;51.90
12477;DHT22;6303;51.504;6.300;2022-12-07T04:57:18;21.20;51.90
12477;DHT22;6303;51.504;6.300;2022-12-07T04:59:45;21.20;51.90
12477;DHT22;6303;51.504;6.300;2022-12-07T05:02:12;21.60;52.10
12477;DHT22;6303;51.504;6.300;2022-12-07T05:04:39;21.20;51.90
12477;DHT22;6303;51.504;6.300;2022-12-07T05:07:06;21.20;51.80
12477;DHT22;6303;51.504;6.300;2022-12-07T05:09:34;21.20;51.90
12477;DHT22;6303;51.504;6.300;2022-12-07T05:12:01;21.10;51.90
12477;DHT22;6303;51.504;6.300;2022-12-07T05:14:28;21.20;51.90
12477;DHT22;6303;51.504;6.300;2022-12-07T05:16:55;21.20;51.80
12477;DHT22;6303;51.504;6.300;2022-12-07T05:19:22;21.20;51.80
12477;DHT22;6303;51.504;6.300;2022-12-07T05:21:50;21.20;51.80
12477;DHT22;6303;51.504;6.300;2022-12-07T05:24:17;21.20;51.80
12477;DHT22;6303;51.504;6.300;2022-12-07T05:26:45;21.20;51.80
12477;DHT22;6303;51.504;6.300;2022-12-07T05:29:14;21.20;51.80
12477;DHT22;6303;51.504;6.300;2022-12-07T05:31:42;21.20;51.90
12477;DHT22;6303;51.504;6.300;2022-12-07T05:34:09;21.10;51.80
12477;DHT22;6303;51.504;6.300;2022-12-07T05:36:36;21.20;51.80
12477;DHT22;6303;51.504;6.300;2022-12-07T05:39:04;21.20;51.80
12477;DHT22;6303;51.504;6.300;2022-12-07T05:41:31;21.20;51.80
12477;DHT22;6303;51.504;6.300;2022-12-07T05:44:17;21.20;51.80
12477;DHT22;6303;51.504;6.300;2022-12-07T05:46:44;21.20;51.80
12477;DHT22;6303;51.504;6.300;2022-12-07T05:49:11;21.20;51.90
12477;DHT22;6303;51.504;6.300;2022-12-07T05:51:38;21.20;51.80
12477;DHT22;6303;51.504;6.300;2022-12-07T05:54:05;21.70;52.00
12477;DHT22;6303;51.504;6.300;2022-12-07T05:56:32;21.20;51.70
12477;DHT22;6303;51.504;6.300;2022-12-07T05:58:59;21.20;51.80
12477;DHT22;6303;51.504;6.300;2022-12-07T06:01:45;21.20;52.00
12477;DHT22;6303;51.504;6.300;2022-12-07T06:04:12;21.20;52.00
12477;DHT22;6303;51.504;6.300;2022-12-07T06:06:39;21.20;52.10
12477;DHT22;6303;51.504;6.300;2022-12-07T06:09:06;21.30;52.20
12477;DHT22;6303;51.504;6.300;2022-12-07T06:11:34;21.20;52.10
12477;DHT22;6303;51.504;6.300;2022-12-07T06:14:18;21.20;52.20
12477;DHT22;6303;51.504;6.300;2022-12-07T06:16:46;21.30;52.30
12477;DHT22;6303;51.504;6.300;2022-12-07T06:19:13;21.30;52.40
12477;DHT22;6303;51.504;6.300;2022-12-07T06:21:41;21.30;52.30
12477;DHT22;6303;51.504;6.300;2022-12-07T06:24:09;21.30;52.40
12477;DHT22;6303;51.504;6.300;2022-12-07T06:26:37;21.30;52.40
12477;DHT22;6303;51.504;6.300;2022-12-07T06:29:04;21.30;52.50
12477;DHT22;6303;51.504;6.300;2022-12-07T06:31:32;21.30;52.70
12477;DHT22;6303;51.504;6.300;2022-12-07T06:34:01;21.30;52.80
12477;DHT22;6303;51.504;6.300;2022-12-07T06:36:29;21.30;52.80
12477;DHT22;6303;51.504;6.300;2022-12-07T06:38:56;21.30;52.90
12477;DHT22;6303;51.504;6.300;2022-12-07T06:41:23;21.30;53.00
12477;DHT22;6303;51.504;6.300;2022-12-07T06:43:50;21.30;53.10
12477;DHT22;6303;51.504;6.300;2022-12-07T06:46:18;21.30;53.30
12477;DHT22;6303;51.504;6.300;2022-12-07T06:48:45;21.30;53.20
12477;DHT22;6303;51.504;6.300;2022-12-07T06:51:14;21.30;53.10
12477;DHT22;6303;51.504;6.300;2022-12-07T06:53:41;21.40;53.70
12477;DHT22;6303;51.504;6.300;2022-12-07T06:56:08;21.40;53.90
12477;DHT22;6303;51.504;6.300;2022-12-07T06:58:35;21.30;53.90
12477;DHT22;6303;51.504;6.300;2022-12-07T07:01:02;21.30;53.90
12477;DHT22;6303;51.504;6.300;2022-12-07T07:03:29;21.30;53.90
12477;DHT22;6303;51.504;6.300;2022-12-07T07:05:56;21.30;53.90
12477;DHT22;6303;51.504;6.300;2022-12-07T07:08:24;21.30;54.00
12477;DHT22;6303;51.504;6.300;2022-12-07T07:10:51;21.30;54.00
12477;DHT22;6303;51.504;6.300;2022-12-07T07:13:18;21.30;54.00
12477;DHT22;6303;51.504;6.300;2022-12-07T07:15:45;21.20;53.90
12477;DHT22;6303;51.504;6.300;2022-12-07T07:18:12;21.20;53.90
12477;DHT22;6303;51.504;6.300;2022-12-07T07:20:39;21.20;53.90
12477;DHT22;6303;51.504;6.300;2022-12-07T07:23:07;21.20;53.80
12477;DHT22;6303;51.504;6.300;2022-12-07T07:25:35;21.20;53.90
12477;DHT22;6303;51.504;6.300;2022-12-07T07:28:03;21.20;53.90
12477;DHT22;6303;51.504;6.300;2022-12-07T07:30:30;21.20;53.90
12477;DHT22;6303;51.504;6.300;2022-12-07T07:32:57;21.20;53.80
12477;DHT22;6303;51.504;6.300;2022-12-07T07:35:24;21.20;53.90
12477;DHT22;6303;51.504;6.300;2022-12-07T07:37:52;21.20;53.80
12477;DHT22;6303;51.504;6.300;2022-12-07T07:40:19;21.20;53.80
12477;DHT22;6303;51.504;6.300;2022-12-07T07:42:48;21.20;53.80
12477;DHT22;6303;51.504;6.300;2022-12-07T07:45:16;21.20;53.80
12477;DHT22;6303;51.504;6.300;2022-12-07T07:47:43;21.20;53.70
12477;DHT22;6303;51.504;6.300;2022-12-07T07:50:10;21.20;53.70
12477;DHT22;6303;51.504;6.300;2022-12-07T07:52:37;21.20;53.70
12477;DHT22;6303;51.504;6.300;2022-12-07T07:55:05;21.20;53.50
12477;DHT22;6303;51.504;6.300;2022-12-07T07:57:34;21.20;53.50
12477;DHT22;6303;51.504;6.300;2022-12-07T08:00:04;21.30;53.50
12477;DHT22;6303;51.504;6.300;2022-12-07T08:02:38;21.30;53.40
12477;DHT22;6303;51.504;6.300;2022-12-07T08:05:06;21.30;53.30
12477;DHT22;6303;51.504;6.300;2022-12-07T08:07:33;19.40;52.40
12477;DHT22;6303;51.504;6.300;2022-12-07T08:10:00;21.40;53.30
12477;DHT22;6303;51.504;6.300;2022-12-07T08:12:27;21.50;53.10
12477;DHT22;6303;51.504;6.300;2022-12-07T08:14:54;21.60;52.70
12477;DHT22;6303;51.504;6.300;2022-12-07T08:17:22;21.70;52.50
12477;DHT22;6303;51.504;6.300;2022-12-07T08:19:49;21.90;52.10
12477;DHT22;6303;51.504;6.300;2022-12-07T08:22:16;22.00;51.80
12477;DHT22;6303;51.504;6.300;2022-12-07T08:24:44;22.10;51.50
12477;DHT22;6303;51.504;6.300;2022-12-07T08:27:11;22.10;51.10
12477;DHT22;6303;51.504;6.300;2022-12-07T08:29:38;22.20;51.00
12477;DHT22;6303;51.504;6.300;2022-12-07T08:32:05;22.20;50.90
12477;DHT22;6303;51.504;6.300;2022-12-07T08:34:34;22.20;50.90
12477;DHT22;6303;51.504;6.300;2022-12-07T08:37:01;22.20;50.90
12477;DHT22;6303;51.504;6.300;2022-12-07T08:39:28;22.20;50.90
12477;DHT22;6303;51.504;6.300;2022-12-07T08:41:55;22.20;50.80
12477;DHT22;6303;51.504;6.300;2022-12-07T08:44:22;22.30;50.20
12477;DHT22;6303;51.504;6.300;2022-12-07T08:46:51;22.30;50.70
12477;DHT22;6303;51.504;6.300;2022-12-07T08:49:23;22.30;50.50
12477;DHT22;6303;51.504;6.300;2022-12-07T08:51:52;22.40;50.40
12477;DHT22;6303;51.504;6.300;2022-12-07T08:54:19;22.50;49.70
12477;DHT22;6303;51.504;6.300;2022-12-07T08:56:47;22.50;50.10
12477;DHT22;6303;51.504;6.300;2022-12-07T08:59:16;22.60;50.10
12477;DHT22;6303;51.504;6.300;2022-12-07T09:01:44;22.70;49.90
12477;DHT22;6303;51.504;6.300;2022-12-07T09:04:11;22.70;49.70
12477;DHT22;6303;51.504;6.300;2022-12-07T09:06:38;22.80;49.60
12477;DHT22;6303;51.504;6.300;2022-12-07T09:09:08;22.80;49.50
12477;DHT22;6303;51.504;6.300;2022-12-07T09:11:36;22.80;49.50
12477;DHT22;6303;51.504;6.300;2022-12-07T09:14:03;22.90;49.50
12477;DHT22;6303;51.504;6.300;2022-12-07T09:16:30;21.90;48.80
12477;DHT22;6303;51.504;6.300;2022-12-07T09:18:57;23.00;49.20
12477;DHT22;6303;51.504;6.300;2022-12-07T09:21:24;23.10;49.10
12477;DHT22;6303;51.504;6.300;2022-12-07T09:23:51;23.10;49.00
12477;DHT22;6303;51.504;6.300;2022-12-07T09:26:19;23.20;48.90
12477;DHT22;6303;51.504;6.300;2022-12-07T09:28:46;23.30;48.80
12477;DHT22;6303;51.504;6.300;2022-12-07T09:31:13;23.30;48.60
12477;DHT22;6303;51.504;6.300;2022-12-07T09:33:40;23.40;48.50
12477;DHT22;6303;51.504;6.300;2022-12-07T09:36:08;23.40;48.40
12477;DHT22;6303;51.504;6.300;2022-12-07T09:38:35;23.50;48.30
12477;DHT22;6303;51.504;6.300;2022-12-07T09:41:05;23.50;48.20
12477;DHT22;6303;51.504;6.300;2022-12-07T09:43:35;23.60;48.10
12477;DHT22;6303;51.504;6.300;2022-12-07T09:46:03;23.60;48.10
12477;DHT22;6303;51.504;6.300;2022-12-07T09:48:33;23.70;48.00
12477;DHT22;6303;51.504;6.300;2022-12-07T09:51:03;23.70;47.80
12477;DHT22;6303;51.504;6.300;2022-12-07T09:53:38;23.80;47.80
12477;DHT22;6303;51.504;6.300;2022-12-07T09:56:06;23.80;47.70
12477;DHT22;6303;51.504;6.300;2022-12-07T09:58:34;23.80;47.70
12477;DHT22;6303;51.504;6.300;2022-12-07T10:01:10;23.90;47.70
12477;DHT22;6303;51.504;6.300;2022-12-07T10:03:40;23.90;47.70
12477;DHT22;6303;51.504;6.300;2022-12-07T10:06:11;23.90;47.60
12477;DHT22;6303;51.504;6.300;2022-12-07T10:08:39;24.00;47.50
12477;DHT22;6303;51.504;6.300;2022-12-07T10:11:07;24.00;47.40
12477;DHT22;6303;51.504;6.300;2022-12-07T10:13:38;24.00;47.30
12477;DHT22;6303;51.504;6.300;2022-12-07T10:16:07;24.10;47.30
12477;DHT22;6303;51.504;6.300;2022-12-07T10:18:53;24.10;47.20
12477;DHT22;6303;51.504;6.300;2022-12-07T10:21:22;24.10;47.10
12477;DHT22;6303;51.504;6.300;2022-12-07T10:24:01;24.10;47.10
12477;DHT22;6303;51.504;6.300;2022-12-07T10:26:31;24.10;47.10
12477;DHT22;6303;51.504;6.300;2022-12-07T10:29:04;24.20;47.00
12477;DHT22;6303;51.504;6.300;2022-12-07T10:31:40;24.20;46.90
12477;DHT22;6303;51.504;6.300;2022-12-07T10:34:20;24.20;46.90
12477;DHT22;6303;51.504;6.300;2022-12-07T10:36:49;24.30;46.90
12477;DHT22;6303;51.504;6.300;2022-12-07T10:39:19;24.30;46.70
12477;DHT22;6303;51.504;6.300;2022-12-07T10:41:53;24.30;46.80
12477;DHT22;6303;51.504;6.300;2022-12-07T10:44:25;24.20;46.80
12477;DHT22;6303;51.504;6.300;2022-12-07T10:47:08;24.10;46.80
12477;DHT22;6303;51.504;6.300;2022-12-07T10:52:47;24.20;46.90
12477;DHT22;6303;51.504;6.300;2022-12-07T10:55:21;24.20;46.70
12477;DHT22;6303;51.504;6.300;2022-12-07T10:58:06;24.30;46.70
12477;DHT22;6303;51.504;6.300;2022-12-07T11:00:44;24.40;46.60
12477;DHT22;6303;51.504;6.300;2022-12-07T11:03:25;24.40;46.50
12477;DHT22;6303;51.504;6.300;2022-12-07T11:06:04;24.30;46.60
12477;DHT22;6303;51.504;6.300;2022-12-07T11:08:50;24.20;46.80
12477;DHT22;6303;51.504;6.300;2022-12-07T11:11:25;24.10;46.80
12477;DHT22;6303;51.504;6.300;2022-12-07T11:13:57;24.10;47.00
12477;DHT22;6303;51.504;6.300;2022-12-07T11:19:34;24.10;47.30
12477;DHT22;6303;51.504;6.300;2022-12-07T11:22:11;24.20;46.90
12477;DHT22;6303;51.504;6.300;2022-12-07T11:24:44;24.10;46.80
12477;DHT22;6303;51.504;6.300;2022-12-07T11:27:23;24.10;47.00
12477;DHT22;6303;51.504;6.300;2022-12-07T11:30:08;24.00;47.10
12477;DHT22;6303;51.504;6.300;2022-12-07T11:32:52;24.00;47.10
12477;DHT22;6303;51.504;6.300;2022-12-07T11:35:29;23.90;47.30
12477;DHT22;6303;51.504;6.300;2022-12-07T11:38:07;23.90;47.60
12477;DHT22;6303;51.504;6.300;2022-12-07T11:40:36;23.90;48.30
12477;DHT22;6303;51.504;6.300;2022-12-07T11:43:11;23.80;48.70
12477;DHT22;6303;51.504;6.300;2022-12-07T11:45:42;23.80;49.00
12477;DHT22;6303;51.504;6.300;2022-12-07T11:48:15;23.80;49.00
12477;DHT22;6303;51.504;6.300;2022-12-07T11:50:46;23.80;49.00
12477;DHT22;6303;51.504;6.300;2022-12-07T11:53:17;23.80;49.00
12477;DHT22;6303;51.504;6.300;2022-12-07T11:55:49;23.70;48.90
12477;DHT22;6303;51.504;6.300;2022-12-07T11:58:35;23.70;49.00
12477;DHT22;6303;51.504;6.300;2022-12-07T12:01:15;23.70;48.90
12477;DHT22;6303;51.504;6.300;2022-12-07T12:03:50;23.70;49.00
12477;DHT22;6303;51.504;6.300;2022-12-07T12:06:17;23.70;49.00
12477;DHT22;6303;51.504;6.300;2022-12-07T12:08:49;23.70;49.00
12477;DHT22;6303;51.504;6.300;2022-12-07T12:11:30;23.60;49.00
12477;DHT22;6303;51.504;6.300;2022-12-07T12:14:14;23.60;49.00
12477;DHT22;6303;51.504;6.300;2022-12-07T12:17:00;24.20;49.30
12477;DHT22;6303;51.504;6.300;2022-12-07T12:19:35;23.60;49.00
12477;DHT22;6303;51.504;6.300;2022-12-07T12:22:10;23.60;49.00
12477;DHT22;6303;51.504;6.300;2022-12-07T12:24:40;21.10;47.80
12477;DHT22;6303;51.504;6.300;2022-12-07T12:27:09;23.60;49.00
12477;DHT22;6303;51.504;6.300;2022-12-07T12:29:42;23.60;49.00
12477;DHT22;6303;51.504;6.300;2022-12-07T12:32:18;23.60;49.00
12477;DHT22;6303;51.504;6.300;2022-12-07T12:37:46;23.50;49.60
12477;DHT22;6303;51.504;6.300;2022-12-07T12:40:38;23.50;49.00
12477;DHT22;6303;51.504;6.300;2022-12-07T12:43:46;23.50;49.00
12477;DHT22;6303;51.504;6.300;2022-12-07T12:46:47;23.50;49.10
12477;DHT22;6303;51.504;6.300;2022-12-07T12:49:34;23.50;49.10
12477;DHT22;6303;51.504;6.300;2022-12-07T12:55:17;23.40;49.20
12477;DHT22;6303;51.504;6.300;2022-12-07T12:57:47;23.40;49.20
12477;DHT22;6303;51.504;6.300;2022-12-07T13:00:19;23.30;49.20
12477;DHT22;6303;51.504;6.300;2022-12-07T13:02:50;23.30;49.20
12477;DHT22;6303;51.504;6.300;2022-12-07T13:05:20;23.30;49.20
12477;DHT22;6303;51.504;6.300;2022-12-07T13:07:57;23.30;48.70
12477;DHT22;6303;51.504;6.300;2022-12-07T13:10:40;23.30;49.20
12477;DHT22;6303;51.504;6.300;2022-12-07T13:13:31;23.30;49.20
12477;DHT22;6303;51.504;6.300;2022-12-07T13:16:36;23.30;49.20
12477;DHT22;6303;51.504;6.300;2022-12-07T13:22:36;23.20;49.30
12477;DHT22;6303;51.504;6.300;2022-12-07T13:25:10;23.20;49.30
12477;DHT22;6303;51.504;6.300;2022-12-07T13:27:39;23.20;49.30
12477;DHT22;6303;51.504;6.300;2022-12-07T13:30:14;23.20;49.20
12477;DHT22;6303;51.504;6.300;2022-12-07T13:32:42;23.20;49.20
12477;DHT22;6303;51.504;6.300;2022-12-07T13:35:31;23.20;49.30
12477;DHT22;6303;51.504;6.300;2022-12-07T13:37:59;23.20;49.30
12477;DHT22;6303;51.504;6.300;2022-12-07T13:40:29;23.10;49.30
12477;DHT22;6303;51.504;6.300;2022-12-07T13:43:00;23.20;49.30
12477;DHT22;6303;51.504;6.300;2022-12-07T13:45:30;23.10;49.40
12477;DHT22;6303;51.504;6.300;2022-12-07T13:48:21;23.10;49.30
12477;DHT22;6303;51.504;6.300;2022-12-07T13:50:56;23.10;49.30
12477;DHT22;6303;51.504;6.300;2022-12-07T13:53:23;23.10;49.40
12477;DHT22;6303;51.504;6.300;2022-12-07T13:55:55;23.00;49.30
12477;DHT22;6303;51.504;6.300;2022-12-07T13:58:23;23.00;49.40
12477;DHT22;6303;51.504;6.300;2022-12-07T14:00:50;23.00;49.40
12477;DHT22;6303;51.504;6.300;2022-12-07T14:03:26;23.00;49.40
12477;DHT22;6303;51.504;6.300;2022-12-07T14:06:07;23.00;49.40
12477;DHT22;6303;51.504;6.300;2022-12-07T14:08:39;23.00;49.50
12477;DHT22;6303;51.504;6.300;2022-12-07T14:11:09;22.90;49.40
12477;DHT22;6303;51.504;6.300;2022-12-07T14:13:40;22.90;49.40
12477;DHT22;6303;51.504;6.300;2022-12-07T14:16:22;22.90;49.50
12477;DHT22;6303;51.504;6.300;2022-12-07T14:18:50;22.90;49.60
12477;DHT22;6303;51.504;6.300;2022-12-07T14:21:20;22.90;49.60
12477;DHT22;6303;51.504;6.300;2022-12-07T14:24:08;22.80;49.60
12477;DHT22;6303;51.504;6.300;2022-12-07T14:26:37;22.80;49.60
12477;DHT22;6303;51.504;6.300;2022-12-07T14:29:21;22.80;49.60
12477;DHT22;6303;51.504;6.300;2022-12-07T14:31:48;22.80;49.60
12477;DHT22;6303;51.504;6.300;2022-12-07T14:34:15;22.80;49.60
12477;DHT22;6303;51.504;6.300;2022-12-07T14:36:42;22.70;49.50
12477;DHT22;6303;51.504;6.300;2022-12-07T14:39:09;22.70;49.60
12477;DHT22;6303;51.504;6.300;2022-12-07T14:41:38;22.70;49.60
12477;DHT22;6303;51.504;6.300;2022-12-07T14:44:18;22.70;49.60
12477;DHT22;6303;51.504;6.300;2022-12-07T14:46:46;22.70;49.60
12477;DHT22;6303;51.504;6.300;2022-12-07T14:49:13;22.70;49.60
12477;DHT22;6303;51.504;6.300;2022-12-07T14:51:42;22.70;49.70
12477;DHT22;6303;51.504;6.300;2022-12-07T14:54:16;22.60;49.70
12477;DHT22;6303;51.504;6.300;2022-12-07T14:56:45;22.60;49.80
12477;DHT22;6303;51.504;6.300;2022-12-07T14:59:15;22.60;49.70
12477;DHT22;6303;51.504;6.300;2022-12-07T15:01:42;22.50;49.80
12477;DHT22;6303;51.504;6.300;2022-12-07T15:04:09;22.50;49.80
12477;DHT22;6303;51.504;6.300;2022-12-07T15:06:37;22.50;49.90
12477;DHT22;6303;51.504;6.300;2022-12-07T15:09:04;22.50;49.90
12477;DHT22;6303;51.504;6.300;2022-12-07T15:11:32;22.50;49.90
12477;DHT22;6303;51.504;6.300;2022-12-07T15:14:00;22.40;50.00
12477;DHT22;6303;51.504;6.300;2022-12-07T15:16:38;22.40;50.00
12477;DHT22;6303;51.504;6.300;2022-12-07T15:19:08;22.40;50.00
12477;DHT22;6303;51.504;6.300;2022-12-07T15:21:37;22.40;50.10
12477;DHT22;6303;51.504;6.300;2022-12-07T15:24:05;22.40;50.20
12477;DHT22;6303;51.504;6.300;2022-12-07T15:26:32;22.40;50.30
12477;DHT22;6303;51.504;6.300;2022-12-07T15:29:00;22.30;50.20
12477;DHT22;6303;51.504;6.300;2022-12-07T15:31:28;22.30;50.30
12477;DHT22;6303;51.504;6.300;2022-12-07T15:33:55;22.30;50.30
12477;DHT22;6303;51.504;6.300;2022-12-07T15:36:24;22.30;50.50
12477;DHT22;6303;51.504;6.300;2022-12-07T15:38:52;22.20;50.50
12477;DHT22;6303;51.504;6.300;2022-12-07T15:41:19;22.20;50.60
12477;DHT22;6303;51.504;6.300;2022-12-07T15:43:46;22.20;50.60
12477;DHT22;6303;51.504;6.300;2022-12-07T15:46:34;22.10;50.70
12477;DHT22;6303;51.504;6.300;2022-12-07T15:49:01;22.10;50.70
12477;DHT22;6303;51.504;6.300;2022-12-07T15:51:28;22.10;50.80
12477;DHT22;6303;51.504;6.300;2022-12-07T15:53:57;22.10;50.70
12477;DHT22;6303;51.504;6.300;2022-12-07T15:56:24;22.10;50.70
12477;DHT22;6303;51.504;6.300;2022-12-07T15:58:51;22.10;50.80
12477;DHT22;6303;51.504;6.300;2022-12-07T16:01:19;22.00;50.70
12477;DHT22;6303;51.504;6.300;2022-12-07T16:03:48;22.00;50.80
12477;DHT22;6303;51.504;6.300;2022-12-07T16:06:16;22.00;50.80
12477;DHT22;6303;51.504;6.300;2022-12-07T16:08:44;22.00;50.90
12477;DHT22;6303;51.504;6.300;2022-12-07T16:11:12;22.00;50.90
12477;DHT22;6303;51.504;6.300;2022-12-07T16:13:39;22.00;50.50
12477;DHT22;6303;51.504;6.300;2022-12-07T16:16:07;22.00;51.00
12477;DHT22;6303;51.504;6.300;2022-12-07T16:18:35;22.00;50.90
12477;DHT22;6303;51.504;6.300;2022-12-07T16:21:03;22.00;51.00
12477;DHT22;6303;51.504;6.300;2022-12-07T16:23:31;22.00;51.00